Time;durP1;ratioP1;P1;durP2;ratioP2;P2;SDS_P1;SDS_P2;PMS_P1;PMS_P2;Temp;Humidity;BMP_temperature;BMP_pressure;BME280_temperature;BME280_humidity;BME280_pressure;Samples;Min_cycle;Max_cycle;Signal;HPM_P1;HPM_P2
2023/05/06 00:02:11;;;;;;;5.30;2.50;;;;;;;18.80;41.78;100728.66;108132;1285;23620;-59
2023/05/06 00:04:37;;;;;;;4.90;3.10;;;;;;;18.79;41.78;100725.52;108191;1280;21998;-59
2023/05/06 00:07:03;;;;;;;5.50;2.80;;;;;;;18.78;41.67;100723.09;108186;1285;22018;-60
2023/05/06 00:09:28;;;;;;;11.40;3.60;;;;;;;18.77;41.91;100721.52;108117;1285;23640;-59
2023/05/06 00:11:54;;;;;;;4.80;3.00;;;;;;;18.77;41.83;100723.51;108222;1285;21999;-59
2023/05/06 00:14:20;;;;;;;5.90;2.90;;;;;;;18.76;41.91;100721.23;108154;1285;22003;-59
2023/05/06 00:16:46;;;;;;;5.40;2.50;;;;;;;18.73;41.93;100721.16;108236;1285;21987;-59
2023/05/06 00:19:11;;;;;;;4.90;2.60;;;;;;;18.71;41.72;100724.23;108129;1285;23669;-59
2023/05/06 00:21:37;;;;;;;9.60;2.60;;;;;;;18.71;41.67;100724.80;108142;1285;22000;-59
2023/05/06 00:24:04;;;;;;;5.70;2.30;;;;;;;18.70;41.74;100725.38;108120;1281;21983;-59
2023/05/06 00:26:30;;;;;;;8.10;2.70;;;;;;;18.67;41.54;100724.08;108169;1285;22455;-59
2023/05/06 00:28:55;;;;;;;5.00;2.70;;;;;;;18.63;41.63;100721.36;108134;1284;23071;-59
2023/05/06 00:31:21;;;;;;;6.60;2.40;;;;;;;18.61;41.49;100725.70;108221;1285;21997;-59
2023/05/06 00:33:47;;;;;;;6.70;2.60;;;;;;;18.61;41.47;100725.36;108181;1285;21992;-59
2023/05/06 00:36:12;;;;;;;6.50;2.60;;;;;;;18.58;41.42;100729.21;108140;1285;21989;-59
2023/05/06 00:38:38;;;;;;;6.70;2.60;;;;;;;18.54;41.48;100730.63;108093;1285;22454;-60
2023/05/06 00:41:04;;;;;;;4.70;2.60;;;;;;;18.51;41.42;100728.80;108137;1279;22019;-59
2023/05/06 00:43:30;;;;;;;6.30;2.60;;;;;;;18.47;41.45;100727.18;108223;1284;21986;-59
2023/05/06 00:45:55;;;;;;;6.20;3.40;;;;;;;18.41;41.46;100725.09;108196;1284;22027;-59
2023/05/06 00:48:21;;;;;;;7.00;2.70;;;;;;;18.36;41.44;100722.98;108275;1284;23651;-59
2023/05/06 00:50:47;;;;;;;6.60;2.50;;;;;;;18.36;41.40;100721.38;108333;1284;21989;-59
2023/05/06 00:53:13;;;;;;;4.30;2.30;;;;;;;18.34;41.41;100721.11;108167;1285;21990;-59
2023/05/06 00:55:38;;;;;;;4.50;2.40;;;;;;;18.30;41.46;100722.16;107398;1285;1002436;-60
2023/05/06 00:58:04;;;;;;;4.90;2.20;;;;;;;18.27;41.35;100725.45;108151;1285;22003;-59
2023/05/06 01:00:30;;;;;;;6.60;2.20;;;;;;;18.26;41.47;100724.26;108125;1284;23669;-59
2023/05/06 01:02:56;;;;;;;5.10;2.30;;;;;;;18.26;41.44;100722.31;108181;1285;21983;-59
2023/05/06 01:05:22;;;;;;;6.00;2.40;;;;;;;18.25;41.43;100722.48;108187;1285;23612;-58
2023/05/06 01:08:00;;;;;;;4.30;2.20;;;;;;;18.25;41.51;100721.98;108280;1285;22035;-59
2023/05/06 01:10:30;;;;;;;11.10;2.90;;;;;;;18.24;41.39;100719.70;108296;1284;21986;-59
2023/05/06 01:13:14;;;;;;;3.60;2.00;;;;;;;18.25;41.38;100718.27;108152;1284;193375;-59
2023/05/06 01:15:45;;;;;;;7.50;2.20;;;;;;;18.25;41.44;100719.33;108174;1285;23068;-59
2023/05/06 01:18:11;;;;;;;;;;;;;;;18.25;41.47;100721.80;108184;1285;23053;-59
2023/05/06 01:20:37;;;;;;;6.00;2.30;;;;;;;18.24;41.43;100722.74;108252;1285;21993;-59
2023/05/06 01:23:11;;;;;;;3.90;2.10;;;;;;;18.22;41.61;100722.25;108235;1285;21982;-59
2023/05/06 01:25:37;;;;;;;5.30;2.10;;;;;;;18.21;41.55;100719.61;108287;1285;21984;-59
2023/05/06 01:28:02;;;;;;;6.30;2.00;;;;;;;18.22;41.35;100721.57;108233;1285;21986;-59
2023/05/06 01:30:32;;;;;;;8.10;2.50;;;;;;;18.24;41.41;100716.66;108130;1285;22013;-59
2023/05/06 01:33:26;;;;;;;4.40;2.00;;;;;;;18.28;41.32;100716.35;108191;1285;21983;-59
2023/05/06 01:36:22;;;;;;;4.10;2.20;;;;;;;18.27;41.30;100714.45;108152;1284;22147;-58
2023/05/06 01:38:52;;;;;;;4.10;2.20;;;;;;;18.23;41.24;100711.94;108199;1285;22015;-58
2023/05/06 01:41:18;;;;;;;4.80;2.30;;;;;;;18.19;41.19;100714.95;108193;1285;22959;-59
2023/05/06 01:43:44;;;;;;;4.30;2.60;;;;;;;18.13;41.19;100718.69;105998;1281;1003118;-58
2023/05/06 01:46:15;;;;;;;3.60;1.90;;;;;;;18.09;41.26;100719.38;108149;1285;21986;-58
2023/05/06 01:48:41;;;;;;;6.10;2.20;;;;;;;18.06;41.18;100718.98;108223;1285;23692;-58
2023/05/06 01:51:06;;;;;;;4.80;2.10;;;;;;;18.03;41.13;100718.89;108202;1285;21977;-58
2023/05/06 01:53:33;;;;;;;4.00;2.20;;;;;;;18.00;41.08;100719.19;108277;1285;21988;-59
2023/05/06 01:55:59;;;;;;;3.10;1.90;;;;;;;17.96;41.09;100723.57;108222;1285;21991;-59
2023/05/06 01:58:25;;;;;;;7.60;2.30;;;;;;;17.92;41.16;100726.90;108130;1284;21992;-59
2023/05/06 02:00:51;;;;;;;5.30;2.20;;;;;;;17.88;41.21;100730.82;108190;1284;21988;-59
2023/05/06 02:03:16;;;;;;;7.20;2.50;;;;;;;17.83;41.17;100734.53;108256;1285;21989;-59
2023/05/06 02:05:42;;;;;;;4.40;2.10;;;;;;;17.80;41.24;100738.00;108149;1285;21984;-59
2023/05/06 02:08:08;;;;;;;9.50;1.90;;;;;;;17.76;41.28;100740.09;108174;1285;21983;-58
2023/05/06 02:10:33;;;;;;;4.90;2.10;;;;;;;17.72;41.37;100743.47;108158;1285;22028;-59
2023/05/06 02:13:00;;;;;;;3.50;2.10;;;;;;;17.67;41.40;100744.15;108114;1285;21982;-58
2023/05/06 02:15:25;;;;;;;8.90;2.60;;;;;;;17.64;41.52;100745.86;108230;1285;23282;-59
2023/05/06 02:17:51;;;;;;;3.80;2.50;;;;;;;17.59;41.53;100741.98;108304;1285;25326;-59
2023/05/06 02:20:19;;;;;;;5.00;2.00;;;;;;;17.54;41.50;100744.27;108158;1285;21985;-59
2023/05/06 02:22:45;;;;;;;8.20;2.60;;;;;;;17.51;41.60;100743.48;108297;1284;21973;-59
2023/05/06 02:25:11;;;;;;;5.20;2.10;;;;;;;17.46;41.62;100746.52;106776;1284;1002958;-59
2023/05/06 02:27:36;;;;;;;6.60;2.40;;;;;;;17.42;41.66;100746.66;108273;1284;21989;-59
2023/05/06 02:30:02;;;;;;;4.90;2.10;;;;;;;17.39;41.60;100746.38;108232;1285;23205;-59
2023/05/06 02:32:28;;;;;;;10.00;2.50;;;;;;;17.35;41.68;100742.80;108187;1285;21998;-59
2023/05/06 02:34:54;;;;;;;4.20;2.20;;;;;;;17.30;41.66;100748.29;108159;1285;22045;-59
2023/05/06 02:37:20;;;;;;;7.90;2.10;;;;;;;17.28;41.76;100755.46;108190;1285;22033;-59
2023/05/06 02:39:45;;;;;;;6.90;2.40;;;;;;;17.24;41.85;100757.70;108151;1284;21988;-58
2023/05/06 02:42:14;;;;;;;5.50;2.70;;;;;;;17.23;41.82;100757.02;108131;1285;21978;-59
2023/05/06 02:44:41;;;;;;;8.60;2.40;;;;;;;17.26;41.78;100756.76;108254;1284;21985;-60
2023/05/06 02:47:06;;;;;;;6.00;2.40;;;;;;;17.26;41.81;100758.55;108263;1284;21982;-58
2023/05/06 02:49:33;;;;;;;6.10;2.70;;;;;;;17.24;41.83;100760.52;108216;1284;21992;-58
2023/05/06 02:51:58;;;;;;;4.80;2.20;;;;;;;17.23;41.73;100761.27;108199;1284;21984;-58
2023/05/06 02:54:26;;;;;;;12.40;2.80;;;;;;;17.24;42.08;100759.30;108236;1284;21991;-59
2023/05/06 02:56:52;;;;;;;5.10;2.30;;;;;;;17.30;42.17;100761.23;108209;1284;21989;-59
2023/05/06 02:59:17;;;;;;;5.90;2.30;;;;;;;17.31;41.96;100761.73;108083;1285;21986;-59
2023/05/06 03:01:43;;;;;;;6.30;2.70;;;;;;;17.27;41.70;100758.68;108145;1285;21986;-59
2023/05/06 03:04:09;;;;;;;9.70;2.30;;;;;;;17.07;41.96;100762.54;108092;1284;21973;-59
2023/05/06 03:06:35;;;;;;;6.40;2.10;;;;;;;16.94;42.10;100765.77;108067;1285;22026;-59
2023/05/06 03:09:01;;;;;;;8.20;2.60;;;;;;;17.00;41.91;100764.20;108057;1285;21988;-59
2023/05/06 03:11:29;;;;;;;4.90;1.80;;;;;;;16.99;41.97;100767.95;108065;1285;22455;-59
2023/05/06 03:13:55;;;;;;;2.90;1.40;;;;;;;16.95;42.04;100772.47;108216;1285;21940;-59
2023/05/06 03:16:20;;;;;;;4.90;1.80;;;;;;;16.92;42.00;100779.47;108134;1285;21986;-59
2023/05/06 03:18:46;;;;;;;2.90;1.90;;;;;;;16.92;42.15;100782.48;108257;1285;21989;-59
2023/05/06 03:21:12;;;;;;;7.90;2.60;;;;;;;16.91;42.06;100785.16;108229;1284;21987;-59
2023/05/06 03:23:38;;;;;;;5.60;2.10;;;;;;;16.93;42.12;100789.73;108220;1284;22151;-59
2023/05/06 03:26:03;;;;;;;5.10;1.90;;;;;;;16.95;42.42;100792.33;108148;1285;22036;-59
2023/05/06 03:28:29;;;;;;;5.40;2.20;;;;;;;16.96;42.38;100791.23;108314;1285;22042;-60
2023/05/06 03:30:55;;;;;;;5.60;1.90;;;;;;;16.98;42.39;100793.88;108155;1285;21996;-59
2023/05/06 03:33:21;;;;;;;4.70;1.90;;;;;;;16.99;42.32;100795.06;108245;1284;22968;-59
2023/05/06 03:35:46;;;;;;;7.00;1.70;;;;;;;17.04;42.34;100799.84;108199;1285;22511;-59
2023/05/06 03:38:12;;;;;;;5.20;1.70;;;;;;;17.07;42.23;100798.17;108124;1285;22113;-59
2023/05/06 03:40:38;;;;;;;4.60;1.90;;;;;;;17.10;42.14;100796.83;108190;1285;21989;-59
2023/05/06 03:43:04;;;;;;;5.60;1.90;;;;;;;17.16;42.08;100800.55;108188;1285;21995;-59
2023/05/06 03:45:29;;;;;;;8.30;2.30;;;;;;;17.21;42.26;100806.23;108148;1285;21985;-59
2023/05/06 03:47:55;;;;;;;5.60;2.00;;;;;;;17.23;42.14;100807.91;108112;1284;21991;-59
2023/05/06 03:50:21;;;;;;;5.50;1.70;;;;;;;17.25;42.05;100810.16;108202;1285;21988;-59
2023/05/06 03:52:47;;;;;;;5.50;2.00;;;;;;;17.30;42.06;100811.26;108263;1284;21997;-59
2023/05/06 03:55:12;;;;;;;6.30;2.10;;;;;;;17.35;42.07;100810.20;108140;1285;21989;-59
2023/05/06 03:57:38;;;;;;;11.40;2.00;;;;;;;17.39;41.88;100808.30;106688;1285;1002579;-57
2023/05/06 04:00:05;;;;;;;7.00;2.40;;;;;;;17.47;42.19;100809.45;108097;1284;21983;-58
2023/05/06 04:02:34;;;;;;;7.20;2.40;;;;;;;17.63;42.35;100806.92;108222;1285;22220;-58
2023/05/06 04:05:00;;;;;;;6.80;2.10;;;;;;;17.82;42.05;100810.55;108195;1285;22028;-58
2023/05/06 04:07:25;;;;;;;8.70;2.10;;;;;;;17.95;41.81;100815.04;108175;1285;22002;-59
2023/05/06 04:09:51;;;;;;;7.90;2.20;;;;;;;18.07;41.69;100817.48;108186;1285;22018;-59
2023/05/06 04:12:17;;;;;;;9.80;2.30;;;;;;;18.17;41.89;100817.49;108149;1285;23707;-57
2023/05/06 04:14:42;;;;;;;7.20;2.30;;;;;;;18.26;41.69;100821.05;108144;1284;21992;-60
2023/05/06 04:17:08;;;;;;;9.00;2.40;;;;;;;18.38;41.55;100823.61;108088;1285;21986;-59
2023/05/06 04:19:34;;;;;;;3.80;2.00;;;;;;;18.50;41.37;100823.51;108082;1285;22024;-59
2023/05/06 04:22:00;;;;;;;6.90;1.90;;;;;;;18.63;41.51;100821.60;108260;1285;22000;-59
2023/05/06 04:24:27;;;;;;;6.60;2.50;;;;;;;18.77;41.32;100823.20;108141;1284;21985;-59
2023/05/06 04:26:53;;;;;;;8.20;2.30;;;;;;;18.89;41.15;100823.79;108227;1283;21994;-60
2023/05/06 04:29:18;;;;;;;10.30;2.20;;;;;;;19.03;41.26;100825.05;108275;1285;21985;-60
2023/05/06 04:31:45;;;;;;;8.00;2.40;;;;;;;19.14;40.71;100825.52;108162;1285;22037;-58
2023/05/06 04:34:11;;;;;;;7.00;2.50;;;;;;;19.17;40.43;100831.58;108563;1285;22215;-60
2023/05/06 04:36:37;;;;;;;4.10;2.30;;;;;;;19.15;40.34;100833.27;108088;1285;21989;-59
2023/05/06 04:39:05;;;;;;;5.60;2.20;;;;;;;19.16;40.40;100832.36;108060;1284;22077;-59
2023/05/06 04:41:32;;;;;;;5.10;2.10;;;;;;;19.16;40.18;100836.45;108353;1285;21990;-58
2023/05/06 04:43:58;;;;;;;4.00;2.30;;;;;;;19.17;40.05;100841.71;108256;1285;22026;-59
2023/05/06 04:46:24;;;;;;;5.00;2.00;;;;;;;19.19;40.07;100839.89;108081;1285;21973;-60
2023/05/06 04:48:49;;;;;;;6.30;2.10;;;;;;;19.23;40.23;100841.47;108092;1283;21987;-59
2023/05/06 04:51:15;;;;;;;3.60;1.90;;;;;;;19.34;40.18;100841.39;108169;1285;21989;-59
2023/05/06 04:53:41;;;;;;;6.50;2.00;;;;;;;19.46;40.23;100843.73;108166;1285;21986;-58
2023/05/06 04:56:07;;;;;;;5.40;2.00;;;;;;;19.55;40.10;100842.48;108116;1285;22070;-59
2023/05/06 04:58:32;;;;;;;4.20;2.30;;;;;;;19.64;40.03;100839.80;108065;1285;22036;-59
2023/05/06 05:01:02;;;;;;;6.90;2.50;;;;;;;19.67;40.17;100844.28;108155;1285;22021;-59
2023/05/06 05:03:28;;;;;;;6.00;2.20;;;;;;;19.73;40.23;100846.86;108174;1285;21986;-59
2023/05/06 05:05:53;;;;;;;6.90;2.20;;;;;;;19.85;40.31;100849.58;108135;1285;21983;-59
2023/05/06 05:08:20;;;;;;;5.60;2.10;;;;;;;19.98;40.07;100845.65;108140;1285;21989;-59
2023/05/06 05:10:47;;;;;;;4.90;2.60;;;;;;;20.07;39.99;100842.75;108174;1285;23424;-59
2023/05/06 05:13:13;;;;;;;5.40;2.00;;;;;;;20.24;40.07;100846.96;108159;1285;21983;-59
2023/05/06 05:15:38;;;;;;;3.90;1.80;;;;;;;20.39;39.72;100846.84;108097;1285;21998;-60
2023/05/06 05:18:04;;;;;;;4.90;2.00;;;;;;;20.46;39.53;100849.17;108071;1285;21952;-59
2023/05/06 05:20:30;;;;;;;5.50;2.00;;;;;;;20.67;39.43;100849.31;108228;1285;21986;-59
2023/05/06 05:22:56;;;;;;;4.10;2.00;;;;;;;20.86;39.07;100849.14;108141;1285;21984;-59
2023/05/06 05:25:22;;;;;;;6.40;2.20;;;;;;;21.03;39.03;100849.40;108170;1285;22026;-58
2023/05/06 05:27:47;;;;;;;3.60;2.20;;;;;;;21.23;38.99;100854.52;108137;1278;21989;-59
2023/05/06 07:34:47;;;;;;;2.50;0.90;;;;;;;26.79;32.56;100908.87;109531;1284;22082;-60
2023/05/06 07:37:13;;;;;;;3.80;1.00;;;;;;;26.99;32.23;100912.80;108019;1286;21988;-60
2023/05/06 07:39:38;;;;;;;3.00;1.00;;;;;;;27.09;31.82;100914.02;108020;1280;21986;-60
2023/05/06 07:42:04;;;;;;;3.30;1.00;;;;;;;27.17;31.75;100911.33;108032;1286;21987;-60
2023/05/06 07:44:30;;;;;;;2.20;1.30;;;;;;;27.23;31.69;100914.45;107997;1284;191436;-60
2023/05/06 07:46:56;;;;;;;2.50;1.10;;;;;;;27.32;31.71;100916.48;108218;1284;21950;-61
2023/05/06 07:49:21;;;;;;;3.10;1.20;;;;;;;27.52;31.69;100919.73;108199;1284;21982;-61
2023/05/06 07:51:47;;;;;;;4.90;1.40;;;;;;;27.84;31.32;100923.77;108193;1284;21983;-60
2023/05/06 07:54:13;;;;;;;2.70;1.00;;;;;;;27.90;31.18;100926.61;108216;1284;22079;-60
2023/05/06 07:56:38;;;;;;;2.70;0.90;;;;;;;28.13;30.71;100926.99;108236;1284;23778;-60
2023/05/06 07:59:04;;;;;;;4.40;1.10;;;;;;;28.14;30.67;100930.73;108248;1284;21978;-60
2023/05/06 08:01:30;;;;;;;3.60;1.10;;;;;;;28.23;30.42;100925.67;108206;1284;21992;-60
2023/05/06 08:03:56;;;;;;;1.90;0.90;;;;;;;28.13;30.13;100925.73;108231;1283;22020;-61
2023/05/06 08:06:22;;;;;;;3.30;1.00;;;;;;;28.23;30.25;100925.34;108180;1284;22738;-60
2023/05/06 08:08:47;;;;;;;4.50;1.20;;;;;;;28.42;30.10;100923.27;108134;1285;21987;-60
2023/05/06 08:11:13;;;;;;;2.40;1.10;;;;;;;28.62;29.62;100927.48;108182;1283;21994;-60
2023/05/06 08:13:38;;;;;;;2.70;1.20;;;;;;;28.80;29.90;100925.16;108235;1284;21996;-60
2023/05/06 08:16:05;;;;;;;2.50;1.00;;;;;;;29.04;29.32;100927.25;108168;1284;22739;-61
2023/05/06 08:18:32;;;;;;;3.70;1.50;;;;;;;29.10;28.66;100926.39;108132;1284;22771;-60
2023/05/06 08:20:57;;;;;;;2.70;1.10;;;;;;;29.03;28.93;100929.09;108299;1284;21974;-61
2023/05/06 08:23:23;;;;;;;4.50;1.00;;;;;;;29.21;29.35;100936.17;108259;1284;21987;-61
2023/05/06 08:25:49;;;;;;;3.30;1.30;;;;;;;29.62;29.35;100935.63;108116;1284;22252;-60
2023/05/06 08:28:15;;;;;;;2.40;1.10;;;;;;;29.88;28.78;100931.16;108137;1284;21978;-60
2023/05/06 08:30:40;;;;;;;3.30;1.50;;;;;;;30.04;28.54;100930.73;108126;1284;21978;-60
2023/05/06 08:33:06;;;;;;;7.50;1.20;;;;;;;30.09;27.76;100932.80;108351;1284;22650;-59
2023/05/06 08:35:32;;;;;;;4.30;1.10;;;;;;;30.10;28.06;100932.95;108303;1284;22040;-60
2023/05/06 08:37:58;;;;;;;5.00;1.10;;;;;;;30.25;28.11;100932.01;108381;1284;23808;-59
2023/05/06 08:40:24;;;;;;;3.20;1.10;;;;;;;30.37;27.51;100928.42;108429;1284;21992;-61
2023/05/06 08:42:49;;;;;;;4.90;1.30;;;;;;;30.60;27.60;100929.82;108285;1285;22066;-61
2023/05/06 08:45:15;;;;;;;2.00;1.10;;;;;;;30.78;27.39;100923.73;108276;1284;22018;-60
2023/05/06 08:47:41;;;;;;;2.50;0.80;;;;;;;30.90;27.33;100927.55;108212;1284;22020;-60
2023/05/06 08:50:08;;;;;;;1.60;0.70;;;;;;;30.99;27.33;100925.65;108189;1284;23615;-60
2023/05/06 08:52:34;;;;;;;3.80;1.00;;;;;;;31.19;27.25;100919.38;108159;1285;23032;-60
2023/05/06 08:55:03;;;;;;;4.70;1.10;;;;;;;31.36;26.88;100920.53;108115;1285;21991;-60
2023/05/06 08:57:30;;;;;;;2.30;0.80;;;;;;;31.53;27.09;100918.61;108503;1285;21982;-61
2023/05/06 08:59:55;;;;;;;4.50;1.30;;;;;;;31.70;26.73;100917.77;108148;1285;21983;-60
2023/05/06 09:02:21;;;;;;;1.90;1.20;;;;;;;31.75;26.07;100923.14;108156;1285;21986;-60
2023/05/06 09:04:51;;;;;;;2.00;1.00;;;;;;;31.66;25.93;100921.90;108127;1285;21993;-58
2023/05/06 09:07:21;;;;;;;5.00;1.10;;;;;;;31.68;25.51;100916.15;108195;1284;21988;-59
2023/05/06 09:09:47;;;;;;;4.30;1.30;;;;;;;32.00;25.81;100918.31;108263;1284;21986;-60
2023/05/06 09:12:13;;;;;;;1.90;0.90;;;;;;;32.33;25.51;100913.17;108057;1284;21984;-63
2023/05/06 09:14:40;;;;;;;3.90;1.20;;;;;;;32.56;25.17;100911.48;108221;1284;22453;-59
2023/05/06 09:17:22;;;;;;;5.40;0.90;;;;;;;32.71;25.33;100913.61;108223;1284;22024;-60
2023/05/06 09:19:51;;;;;;;3.40;0.80;;;;;;;32.83;25.56;100913.00;108249;1284;22283;-61
2023/05/06 09:22:19;;;;;;;5.70;1.20;;;;;;;32.91;25.23;100914.83;108200;1284;22153;-61
2023/05/06 09:24:45;;;;;;;1.70;0.70;;;;;;;32.80;24.83;100910.77;108175;1284;21983;-60
2023/05/06 09:27:11;;;;;;;7.60;0.90;;;;;;;32.86;24.83;100912.25;108314;1284;22222;-60
2023/05/06 09:29:37;;;;;;;6.00;0.90;;;;;;;32.91;24.43;100909.61;108293;1284;21986;-61
2023/05/06 09:32:04;;;;;;;2.40;1.00;;;;;;;32.85;24.44;100909.44;108050;1284;23296;-60
2023/05/06 09:34:30;;;;;;;7.10;1.00;;;;;;;32.89;24.30;100908.06;108215;1284;21990;-61
2023/05/06 09:36:56;;;;;;;2.00;0.80;;;;;;;32.96;24.28;100904.19;108175;1284;23605;-60
2023/05/06 09:39:26;;;;;;;2.40;1.20;;;;;;;33.02;24.03;100904.27;108039;1284;24136;-60
2023/05/06 09:41:52;;;;;;;2.30;0.80;;;;;;;33.07;24.40;100905.27;108281;1284;22097;-61
2023/05/06 09:44:19;;;;;;;4.40;1.10;;;;;;;33.25;24.48;100902.92;108103;1284;23814;-60
2023/05/06 09:46:45;;;;;;;1.90;0.90;;;;;;;33.47;24.38;100900.39;108199;1284;22178;-60
2023/05/06 09:49:11;;;;;;;2.10;0.80;;;;;;;33.62;24.30;100892.14;108034;1284;21988;-60
2023/05/06 09:51:38;;;;;;;7.20;1.00;;;;;;;33.72;23.85;100890.44;108301;1284;23283;-61
2023/05/06 09:54:04;;;;;;;2.90;0.90;;;;;;;33.81;23.43;100898.70;108188;1284;22931;-62
2023/05/06 09:56:30;;;;;;;4.00;0.90;;;;;;;33.91;23.89;100901.14;108117;1284;22012;-62
2023/05/06 09:58:56;;;;;;;2.80;1.40;;;;;;;33.97;23.66;100898.71;108170;1284;21989;-62
2023/05/06 10:01:22;;;;;;;2.50;1.10;;;;;;;34.08;23.38;100894.52;108176;1284;23775;-62
2023/05/06 10:03:50;;;;;;;2.60;1.00;;;;;;;34.08;23.06;100893.83;108244;1284;23607;-60
2023/05/06 10:06:16;;;;;;;2.10;1.00;;;;;;;34.06;22.52;100897.46;108109;1284;22742;-60
2023/05/06 10:08:44;;;;;;;3.60;1.10;;;;;;;34.22;22.40;100890.66;108165;1284;21986;-60
2023/05/06 10:11:10;;;;;;;2.50;0.90;;;;;;;34.39;22.34;100894.59;108152;1284;21987;-60
2023/05/06 10:13:36;;;;;;;4.80;1.20;;;;;;;34.60;22.44;100899.30;108325;1284;21988;-59
2023/05/06 10:16:02;;;;;;;3.80;1.00;;;;;;;34.76;21.35;100894.83;108001;1284;21981;-60
2023/05/06 10:18:28;;;;;;;3.20;0.80;;;;;;;34.83;21.11;100893.21;108017;1285;22004;-60
2023/05/06 10:20:54;;;;;;;3.30;1.10;;;;;;;34.81;21.36;100893.95;110069;1284;21937;-59
2023/05/06 10:23:30;;;;;;;4.70;1.10;;;;;;;34.90;21.06;100891.41;110086;1285;21966;-63
2023/05/06 10:25:56;;;;;;;3.00;1.00;;;;;;;34.86;20.68;100893.77;108618;1285;24512;-60
2023/05/06 10:28:22;;;;;;;6.60;0.90;;;;;;;34.87;20.21;100891.86;108230;1284;22034;-60
2023/05/06 10:30:49;;;;;;;4.20;0.70;;;;;;;34.95;20.64;100895.01;108265;1284;21988;-60
2023/05/06 10:33:16;;;;;;;3.30;0.70;;;;;;;34.97;21.31;100895.31;108244;1284;21988;-60
2023/05/06 10:36:00;;;;;;;4.10;0.70;;;;;;;35.03;21.09;100889.67;108169;1284;21994;-60
2023/05/06 10:38:31;;;;;;;4.40;1.00;;;;;;;35.13;21.10;100892.35;108192;1284;22846;-59
2023/05/06 10:40:57;;;;;;;4.80;0.90;;;;;;;35.21;21.17;100892.98;108180;1284;21988;-61
2023/05/06 10:43:30;;;;;;;4.60;1.20;;;;;;;35.24;21.15;100896.14;108148;1285;23742;-61
2023/05/06 10:46:02;;;;;;;4.10;0.80;;;;;;;35.21;21.30;100894.97;108133;1285;22871;-62
2023/05/06 10:48:28;;;;;;;4.50;1.60;;;;;;;35.17;21.59;100888.30;108206;1285;23027;-62
2023/05/06 10:51:12;;;;;;;3.80;0.70;;;;;;;35.20;21.71;100887.78;108192;1284;22537;-61
2023/05/06 10:53:59;;;;;;;1.40;0.70;;;;;;;35.26;21.35;100886.22;108201;1283;21979;-61
2023/05/06 10:56:25;;;;;;;7.50;1.10;;;;;;;35.28;21.36;100886.53;108342;1283;21985;-61
2023/05/06 10:58:51;;;;;;;7.20;1.40;;;;;;;35.31;20.86;100891.70;108378;1283;22153;-62
2023/05/06 11:01:20;;;;;;;5.20;0.90;;;;;;;35.19;21.00;100891.71;108251;1283;23605;-62
2023/05/06 11:03:46;;;;;;;1.90;0.90;;;;;;;35.09;21.39;100887.36;108338;1283;23148;-60
2023/05/06 11:06:11;;;;;;;1.10;0.60;;;;;;;35.16;21.42;100883.47;108302;1283;22445;-62
2023/05/06 11:08:37;;;;;;;1.40;0.70;;;;;;;35.27;21.42;100882.33;108326;1283;21985;-61
2023/05/06 11:12:01;;;;;;;6.40;1.00;;;;;;;35.32;21.13;100879.22;108301;1283;21985;-61
2023/05/06 11:14:30;;;;;;;2.90;0.80;;;;;;;35.09;20.75;100876.79;107761;1289;21996;-62
2023/05/06 11:16:57;;;;;;;2.70;1.00;;;;;;;34.89;20.77;100878.15;108176;1283;22020;-60
2023/05/06 11:19:24;;;;;;;8.20;1.20;;;;;;;34.73;20.18;100882.24;108242;1283;21982;-61
2023/05/06 11:21:51;;;;;;;3.30;1.00;;;;;;;34.60;20.45;100881.48;108335;1283;22021;-61
2023/05/06 11:24:41;;;;;;;4.20;0.90;;;;;;;34.46;20.52;100877.26;108375;1283;21987;-61
2023/05/06 11:27:08;;;;;;;3.00;0.70;;;;;;;34.49;20.59;100878.94;108291;1283;21980;-61
2023/05/06 11:29:35;;;;;;;1.60;0.80;;;;;;;34.70;21.03;100881.34;108346;1283;21989;-61
2023/05/06 11:32:00;;;;;;;1.40;0.80;;;;;;;34.85;21.24;100876.08;108384;1283;21985;-60
2023/05/06 11:34:30;;;;;;;5.50;0.90;;;;;;;35.02;21.24;100874.06;108268;1270;23709;-62
2023/05/06 11:37:02;;;;;;;1.90;0.70;;;;;;;35.20;21.09;100871.57;108080;1283;21973;-60
2023/05/06 11:39:30;;;;;;;2.90;0.90;;;;;;;35.33;20.70;100872.68;108080;1283;23605;-59
2023/05/06 11:42:05;;;;;;;1.40;0.80;;;;;;;35.44;20.52;100871.66;108318;1283;21983;-59
2023/05/06 11:44:33;;;;;;;4.80;1.10;;;;;;;35.37;20.26;100872.23;108508;1283;22024;-60
2023/05/06 11:47:06;;;;;;;8.10;1.10;;;;;;;35.33;20.21;100875.92;108207;1283;23097;-60
2023/05/06 11:49:36;;;;;;;4.00;1.00;;;;;;;35.40;20.51;100872.98;108267;1283;21985;-60
2023/05/06 11:52:02;;;;;;;2.30;1.00;;;;;;;35.54;20.76;100863.88;108433;1283;22193;-62
2023/05/06 11:54:32;;;;;;;3.20;1.10;;;;;;;35.74;20.93;100868.26;108388;1283;22197;-62
2023/05/06 11:56:59;;;;;;;3.70;1.10;;;;;;;35.73;20.51;100872.53;108439;1283;21982;-61
2023/05/06 11:59:27;;;;;;;2.40;0.90;;;;;;;35.60;20.49;100873.42;108364;1283;21976;-61
2023/05/06 12:01:52;;;;;;;1.60;0.80;;;;;;;35.49;20.11;100872.81;108401;1283;21986;-60
2023/05/06 12:04:18;;;;;;;4.60;0.90;;;;;;;35.46;20.43;100871.23;108324;1283;21987;-60
2023/05/06 12:06:45;;;;;;;1.20;0.70;;;;;;;35.48;20.48;100870.59;108326;1277;23634;-61
2023/05/06 12:09:11;;;;;;;2.90;1.20;;;;;;;35.50;20.54;100868.85;108386;1283;21976;-61
2023/05/06 12:11:37;;;;;;;2.50;1.20;;;;;;;35.59;20.73;100867.64;108427;1283;21986;-60
2023/05/06 12:14:04;;;;;;;4.00;1.20;;;;;;;35.68;20.61;100869.25;108353;1283;21985;-61
2023/05/06 12:16:30;;;;;;;3.00;0.90;;;;;;;35.55;20.23;100870.86;108418;1283;22023;-62
2023/05/06 12:18:56;;;;;;;2.30;1.00;;;;;;;35.28;20.50;100868.31;108398;1283;22759;-60
2023/05/06 12:21:23;;;;;;;2.50;0.90;;;;;;;35.07;20.84;100863.16;108291;1283;21983;-61
2023/05/06 12:24:01;;;;;;;8.40;1.00;;;;;;;34.87;20.13;100866.54;108387;1283;22444;-60
2023/05/06 12:26:26;;;;;;;3.10;0.90;;;;;;;34.36;19.53;100872.98;108379;1283;23070;-59
2023/05/06 12:29:06;;;;;;;3.70;0.80;;;;;;;33.80;19.98;100875.91;108367;1283;23605;-60
2023/05/06 12:31:32;;;;;;;2.00;1.00;;;;;;;33.56;20.53;100877.26;108293;1283;22461;-59
2023/05/06 12:33:58;;;;;;;1.70;1.00;;;;;;;33.65;20.76;100871.59;108325;1283;21994;-59
2023/05/06 12:36:23;;;;;;;1.70;1.00;;;;;;;33.82;20.92;100875.13;108307;1269;23747;-59
2023/05/06 12:38:56;;;;;;;4.90;1.20;;;;;;;33.85;20.64;100875.59;108330;1283;21986;-59
2023/05/06 12:41:23;;;;;;;3.10;0.90;;;;;;;33.71;20.42;100875.86;108183;1284;22025;-59
2023/05/06 12:43:51;;;;;;;1.90;1.00;;;;;;;33.46;20.23;100882.41;108022;1284;23605;-60
2023/05/06 12:46:17;;;;;;;3.00;0.80;;;;;;;33.27;20.56;100883.67;108180;1285;23641;-61
2023/05/06 12:48:58;;;;;;;3.00;1.00;;;;;;;33.28;20.77;100884.32;108183;1284;21983;-60
2023/05/06 12:51:25;;;;;;;4.30;1.40;;;;;;;33.44;20.88;100882.30;108197;1284;22196;-60
2023/05/06 12:53:51;;;;;;;2.20;1.30;;;;;;;33.62;21.02;100879.20;108021;1284;23609;-60
2023/05/06 12:56:18;;;;;;;5.70;1.20;;;;;;;33.76;21.11;100873.77;108126;1284;21984;-62
2023/05/06 12:58:54;;;;;;;4.90;1.40;;;;;;;34.05;20.74;100867.75;108232;1284;22030;-60
2023/05/06 13:01:20;;;;;;;2.80;1.30;;;;;;;34.30;20.32;100868.03;108185;1284;23741;-61
2023/05/06 13:03:46;;;;;;;2.20;0.90;;;;;;;34.42;20.46;100872.20;108198;1284;23715;-61
2023/05/06 13:06:13;;;;;;;3.30;1.10;;;;;;;34.45;20.18;100873.08;108186;1284;23064;-60
2023/05/06 13:08:39;;;;;;;1.80;1.10;;;;;;;34.40;20.05;100870.24;108233;1283;23609;-60
2023/05/06 13:11:05;;;;;;;2.40;0.90;;;;;;;34.33;19.73;100868.80;108366;1283;21981;-60
2023/05/06 13:13:31;;;;;;;2.50;0.90;;;;;;;34.21;19.80;100863.20;108357;1283;21993;-61
2023/05/06 13:15:56;;;;;;;3.60;0.90;;;;;;;34.27;19.99;100858.14;108333;1283;22023;-61
2023/05/06 13:18:22;;;;;;;2.70;1.40;;;;;;;34.38;20.12;100862.58;108008;1283;23629;-61
2023/05/06 13:20:48;;;;;;;4.30;1.30;;;;;;;34.40;19.90;100872.05;108341;1283;21985;-60
2023/05/06 13:23:13;;;;;;;11.90;1.60;;;;;;;34.15;19.82;100872.84;108346;1280;21985;-59